sensor_id;sensor_type;location;lat;lon;timestamp;temperature;humidity
55648;DHT22;45266;48.756;9.246;2022-10-16T00:01:08;14.70;99.90
55648;DHT22;45266;48.756;9.246;2022-10-16T00:02:10;14.70;99.90
55648;DHT22;45266;48.756;9.246;2022-10-16T00:03:12;14.60;99.90
55648;DHT22;45266;48.756;9.246;2022-10-16T00:04:14;14.60;99.90
55648;DHT22;45266;48.756;9.246;2022-10-16T00:05:16;14.60;99.90
55648;DHT22;45266;48.756;9.246;2022-10-16T00:06:20;14.60;99.90
55648;DHT22;45266;48.756;9.246;2022-10-16T00:07:22;14.60;99.90
55648;DHT22;45266;48.756;9.246;2022-10-16T00:08:25;14.60;99.90
55648;DHT22;45266;48.756;9.246;2022-10-16T00:09:26;14.60;99.90
55648;DHT22;45266;48.756;9.246;2022-10-16T00:10:28;14.60;99.90
55648;DHT22;45266;48.756;9.246;2022-10-16T00:11:33;14.60;99.90
55648;DHT22;45266;48.756;9.246;2022-10-16T00:12:35;14.60;99.90
55648;DHT22;45266;48.756;9.246;2022-10-16T00:13:38;14.50;99.90
55648;DHT22;45266;48.756;9.246;2022-10-16T00:14:40;14.60;99.90
55648;DHT22;45266;48.756;9.246;2022-10-16T00:15:43;14.50;99.90
55648;DHT22;45266;48.756;9.246;2022-10-16T00:16:45;14.50;99.90
55648;DHT22;45266;48.756;9.246;2022-10-16T00:17:47;14.50;99.90
55648;DHT22;45266;48.756;9.246;2022-10-16T00:18:49;14.50;99.90
55648;DHT22;45266;48.756;9.246;2022-10-16T00:19:50;14.50;99.90
55648;DHT22;45266;48.756;9.246;2022-10-16T00:20:52;14.50;99.90
55648;DHT22;45266;48.756;9.246;2022-10-16T00:21:54;14.40;99.90
55648;DHT22;45266;48.756;9.246;2022-10-16T00:22:56;14.40;99.90
55648;DHT22;45266;48.756;9.246;2022-10-16T00:24:01;14.40;99.90
55648;DHT22;45266;48.756;9.246;2022-10-16T00:25:03;14.40;99.90
55648;DHT22;45266;48.756;9.246;2022-10-16T00:26:12;14.40;99.90
55648;DHT22;45266;48.756;9.246;2022-10-16T00:27:14;14.40;99.90
55648;DHT22;45266;48.756;9.246;2022-10-16T00:28:16;14.40;99.90
55648;DHT22;45266;48.756;9.246;2022-10-16T00:29:18;14.40;99.90
55648;DHT22;45266;48.756;9.246;2022-10-16T00:30:20;14.40;99.90
55648;DHT22;45266;48.756;9.246;2022-10-16T00:31:22;14.30;99.90
55648;DHT22;45266;48.756;9.246;2022-10-16T00:32:24;14.30;99.90
55648;DHT22;45266;48.756;9.246;2022-10-16T00:33:26;14.30;99.90
55648;DHT22;45266;48.756;9.246;2022-10-16T00:34:28;14.30;99.90
55648;DHT22;45266;48.756;9.246;2022-10-16T00:35:31;14.30;99.90
55648;DHT22;45266;48.756;9.246;2022-10-16T00:36:32;14.30;99.90
55648;DHT22;45266;48.756;9.246;2022-10-16T00:37:34;14.30;99.90
55648;DHT22;45266;48.756;9.246;2022-10-16T00:38:36;14.30;99.90
55648;DHT22;45266;48.756;9.246;2022-10-16T00:39:39;14.30;99.90
55648;DHT22;45266;48.756;9.246;2022-10-16T00:40:41;14.30;99.90
55648;DHT22;45266;48.756;9.246;2022-10-16T00:41:42;14.20;99.90
55648;DHT22;45266;48.756;9.246;2022-10-16T00:42:44;14.20;99.90
55648;DHT22;45266;48.756;9.246;2022-10-16T00:43:51;14.20;99.90
55648;DHT22;45266;48.756;9.246;2022-10-16T00:44:55;14.20;99.90
55648;DHT22;45266;48.756;9.246;2022-10-16T00:45:59;14.20;99.90
55648;DHT22;45266;48.756;9.246;2022-10-16T00:47:01;14.20;99.90
55648;DHT22;45266;48.756;9.246;2022-10-16T00:48:03;14.10;99.90
55648;DHT22;45266;48.756;9.246;2022-10-16T00:49:14;14.10;99.90
55648;DHT22;45266;48.756;9.246;2022-10-16T00:50:32;14.10;99.90
55648;DHT22;45266;48.756;9.246;2022-10-16T00:51:37;14.10;99.90
55648;DHT22;45266;48.756;9.246;2022-10-16T00:52:44;14.10;99.90
55648;DHT22;45266;48.756;9.246;2022-10-16T00:53:48;14.10;99.90
55648;DHT22;45266;48.756;9.246;2022-10-16T00:54:52;14.10;99.90
55648;DHT22;45266;48.756;9.246;2022-10-16T00:55:55;14.10;99.90
55648;DHT22;45266;48.756;9.246;2022-10-16T00:57:02;14.00;99.90
55648;DHT22;45266;48.756;9.246;2022-10-16T00:58:05;14.00;99.90
55648;DHT22;45266;48.756;9.246;2022-10-16T00:59:15;14.00;99.90
55648;DHT22;45266;48.756;9.246;2022-10-16T01:00:23;14.00;99.90
55648;DHT22;45266;48.756;9.246;2022-10-16T01:01:25;14.00;99.90
55648;DHT22;45266;48.756;9.246;2022-10-16T01:02:27;14.00;99.90
55648;DHT22;45266;48.756;9.246;2022-10-16T01:03:35;14.00;99.90
55648;DHT22;45266;48.756;9.246;2022-10-16T01:04:43;14.00;99.90
55648;DHT22;45266;48.756;9.246;2022-10-16T01:05:51;13.90;99.90
55648;DHT22;45266;48.756;9.246;2022-10-16T01:08:18;13.90;99.90
55648;DHT22;45266;48.756;9.246;2022-10-16T01:11:01;13.90;99.90
55648;DHT22;45266;48.756;9.246;2022-10-16T01:13:42;13.90;99.90
55648;DHT22;45266;48.756;9.246;2022-10-16T01:14:53;13.90;99.90
55648;DHT22;45266;48.756;9.246;2022-10-16T01:16:05;13.90;99.90
55648;DHT22;45266;48.756;9.246;2022-10-16T01:21:46;13.90;99.90
55648;DHT22;45266;48.756;9.246;2022-10-16T01:24:41;13.90;99.90
55648;DHT22;45266;48.756;9.246;2022-10-16T01:28:13;13.80;99.90
55648;DHT22;45266;48.756;9.246;2022-10-16T01:29:23;13.80;99.90
55648;DHT22;45266;48.756;9.246;2022-10-16T01:30:30;13.80;99.90
55648;DHT22;45266;48.756;9.246;2022-10-16T01:31:37;13.90;99.90
55648;DHT22;45266;48.756;9.246;2022-10-16T01:32:48;13.90;99.90
55648;DHT22;45266;48.756;9.246;2022-10-16T01:33:59;13.90;99.90
55648;DHT22;45266;48.756;9.246;2022-10-16T01:36:13;13.90;99.90
55648;DHT22;45266;48.756;9.246;2022-10-16T01:37:21;13.90;99.90
55648;DHT22;45266;48.756;9.246;2022-10-16T01:38:34;13.80;99.90
55648;DHT22;45266;48.756;9.246;2022-10-16T01:39:38;13.90;99.90
55648;DHT22;45266;48.756;9.246;2022-10-16T01:40:46;13.90;99.90
55648;DHT22;45266;48.756;9.246;2022-10-16T01:42:33;13.80;99.90
55648;DHT22;45266;48.756;9.246;2022-10-16T01:43:25;13.90;99.90
55648;DHT22;45266;48.756;9.246;2022-10-16T01:44:32;13.90;99.90
55648;DHT22;45266;48.756;9.246;2022-10-16T01:45:36;13.90;99.90
55648;DHT22;45266;48.756;9.246;2022-10-16T01:46:42;13.90;99.90
55648;DHT22;45266;48.756;9.246;2022-10-16T01:47:45;13.90;99.90
55648;DHT22;45266;48.756;9.246;2022-10-16T01:48:48;13.90;99.90
55648;DHT22;45266;48.756;9.246;2022-10-16T01:49:52;13.90;99.90
55648;DHT22;45266;48.756;9.246;2022-10-16T01:51:01;13.90;99.90
55648;DHT22;45266;48.756;9.246;2022-10-16T01:52:12;13.90;99.90
55648;DHT22;45266;48.756;9.246;2022-10-16T01:53:16;13.90;99.90
55648;DHT22;45266;48.756;9.246;2022-10-16T01:54:20;13.90;99.90
55648;DHT22;45266;48.756;9.246;2022-10-16T01:55:29;13.90;99.90
55648;DHT22;45266;48.756;9.246;2022-10-16T01:56:33;13.90;99.90
55648;DHT22;45266;48.756;9.246;2022-10-16T01:57:38;13.90;99.90
55648;DHT22;45266;48.756;9.246;2022-10-16T01:58:46;13.90;99.90
55648;DHT22;45266;48.756;9.246;2022-10-16T01:59:53;13.90;99.90
55648;DHT22;45266;48.756;9.246;2022-10-16T02:00:56;13.80;99.90
55648;DHT22;45266;48.756;9.246;2022-10-16T02:02:01;13.90;99.90
55648;DHT22;45266;48.756;9.246;2022-10-16T02:03:05;13.80;99.90
55648;DHT22;45266;48.756;9.246;2022-10-16T02:04:33;13.80;99.90
55648;DHT22;45266;48.756;9.246;2022-10-16T02:05:45;13.90;99.90
55648;DHT22;45266;48.756;9.246;2022-10-16T02:06:47;13.90;99.90
55648;DHT22;45266;48.756;9.246;2022-10-16T02:07:49;13.90;99.90
55648;DHT22;45266;48.756;9.246;2022-10-16T02:08:51;13.90;99.90
55648;DHT22;45266;48.756;9.246;2022-10-16T02:09:54;13.90;99.90
55648;DHT22;45266;48.756;9.246;2022-10-16T02:10:57;13.90;99.90
55648;DHT22;45266;48.756;9.246;2022-10-16T02:12:03;13.90;99.90
55648;DHT22;45266;48.756;9.246;2022-10-16T02:14:34;13.90;99.90
55648;DHT22;45266;48.756;9.246;2022-10-16T02:15:39;13.90;99.90
55648;DHT22;45266;48.756;9.246;2022-10-16T02:16:43;13.90;99.90
55648;DHT22;45266;48.756;9.246;2022-10-16T02:17:46;13.90;99.90
55648;DHT22;45266;48.756;9.246;2022-10-16T02:18:47;13.90;99.90
55648;DHT22;45266;48.756;9.246;2022-10-16T02:19:52;13.90;99.90
55648;DHT22;45266;48.756;9.246;2022-10-16T02:20:56;13.90;99.90
55648;DHT22;45266;48.756;9.246;2022-10-16T02:22:02;13.90;99.90
55648;DHT22;45266;48.756;9.246;2022-10-16T02:23:07;13.90;99.90
55648;DHT22;45266;48.756;9.246;2022-10-16T02:25:37;13.90;99.90
55648;DHT22;45266;48.756;9.246;2022-10-16T02:27:00;13.90;99.90
55648;DHT22;45266;48.756;9.246;2022-10-16T02:28:10;13.90;99.90
55648;DHT22;45266;48.756;9.246;2022-10-16T02:29:17;13.90;99.90
55648;DHT22;45266;48.756;9.246;2022-10-16T02:30:29;13.90;99.90
55648;DHT22;45266;48.756;9.246;2022-10-16T02:31:35;13.90;99.90
55648;DHT22;45266;48.756;9.246;2022-10-16T02:32:41;13.90;99.90
55648;DHT22;45266;48.756;9.246;2022-10-16T02:33:46;13.90;99.90
55648;DHT22;45266;48.756;9.246;2022-10-16T02:34:49;13.90;99.90
55648;DHT22;45266;48.756;9.246;2022-10-16T02:35:51;13.90;99.90
55648;DHT22;45266;48.756;9.246;2022-10-16T02:36:56;13.90;99.90
55648;DHT22;45266;48.756;9.246;2022-10-16T02:37:59;13.90;99.90
55648;DHT22;45266;48.756;9.246;2022-10-16T02:39:02;13.90;99.90
55648;DHT22;45266;48.756;9.246;2022-10-16T02:40:05;13.90;99.90
55648;DHT22;45266;48.756;9.246;2022-10-16T02:41:08;13.90;99.90
55648;DHT22;45266;48.756;9.246;2022-10-16T02:42:15;13.90;99.90
55648;DHT22;45266;48.756;9.246;2022-10-16T02:43:16;13.90;99.90
55648;DHT22;45266;48.756;9.246;2022-10-16T02:44:18;13.90;99.90
55648;DHT22;45266;48.756;9.246;2022-10-16T02:45:21;13.90;99.90
55648;DHT22;45266;48.756;9.246;2022-10-16T02:46:22;13.90;99.90
55648;DHT22;45266;48.756;9.246;2022-10-16T02:47:24;13.90;99.90
55648;DHT22;45266;48.756;9.246;2022-10-16T02:48:26;13.90;99.90
55648;DHT22;45266;48.756;9.246;2022-10-16T02:49:28;13.90;99.90
55648;DHT22;45266;48.756;9.246;2022-10-16T02:50:29;13.90;99.90
55648;DHT22;45266;48.756;9.246;2022-10-16T02:51:31;13.90;99.90
55648;DHT22;45266;48.756;9.246;2022-10-16T02:52:33;13.90;99.90
55648;DHT22;45266;48.756;9.246;2022-10-16T02:53:35;13.90;99.90
55648;DHT22;45266;48.756;9.246;2022-10-16T02:54:37;13.90;99.90
55648;DHT22;45266;48.756;9.246;2022-10-16T02:55:39;13.90;99.90
55648;DHT22;45266;48.756;9.246;2022-10-16T02:56:40;13.90;99.90
55648;DHT22;45266;48.756;9.246;2022-10-16T02:57:42;13.90;99.90
55648;DHT22;45266;48.756;9.246;2022-10-16T02:58:44;13.90;99.90
55648;DHT22;45266;48.756;9.246;2022-10-16T02:59:46;13.90;99.90
55648;DHT22;45266;48.756;9.246;2022-10-16T03:00:48;13.90;99.90
55648;DHT22;45266;48.756;9.246;2022-10-16T03:01:50;13.90;99.90
55648;DHT22;45266;48.756;9.246;2022-10-16T03:02:52;13.90;99.90
55648;DHT22;45266;48.756;9.246;2022-10-16T03:03:53;13.90;99.90
55648;DHT22;45266;48.756;9.246;2022-10-16T03:04:55;13.90;99.90
55648;DHT22;45266;48.756;9.246;2022-10-16T03:05:57;13.90;99.90
55648;DHT22;45266;48.756;9.246;2022-10-16T03:06:59;13.90;99.90
55648;DHT22;45266;48.756;9.246;2022-10-16T03:08:00;13.90;99.90
55648;DHT22;45266;48.756;9.246;2022-10-16T03:09:02;13.80;99.90
55648;DHT22;45266;48.756;9.246;2022-10-16T03:10:04;13.80;99.90
55648;DHT22;45266;48.756;9.246;2022-10-16T03:11:06;13.80;99.90
55648;DHT22;45266;48.756;9.246;2022-10-16T03:12:08;13.90;99.90
55648;DHT22;45266;48.756;9.246;2022-10-16T03:13:10;13.80;99.90
55648;DHT22;45266;48.756;9.246;2022-10-16T03:14:13;13.80;99.90
55648;DHT22;45266;48.756;9.246;2022-10-16T03:15:14;13.90;99.90
55648;DHT22;45266;48.756;9.246;2022-10-16T03:16:16;13.80;99.90
55648;DHT22;45266;48.756;9.246;2022-10-16T03:17:18;13.90;99.90
55648;DHT22;45266;48.756;9.246;2022-10-16T03:18:20;13.80;99.90
55648;DHT22;45266;48.756;9.246;2022-10-16T03:19:21;13.80;99.90
55648;DHT22;45266;48.756;9.246;2022-10-16T03:20:23;13.80;99.90
55648;DHT22;45266;48.756;9.246;2022-10-16T03:21:25;13.80;99.90
55648;DHT22;45266;48.756;9.246;2022-10-16T03:22:27;13.80;99.90
55648;DHT22;45266;48.756;9.246;2022-10-16T03:23:28;13.80;99.90
55648;DHT22;45266;48.756;9.246;2022-10-16T03:24:31;13.80;99.90
55648;DHT22;45266;48.756;9.246;2022-10-16T03:25:33;13.80;99.90
55648;DHT22;45266;48.756;9.246;2022-10-16T03:26:35;13.80;99.90
55648;DHT22;45266;48.756;9.246;2022-10-16T03:27:37;13.80;99.90
55648;DHT22;45266;48.756;9.246;2022-10-16T03:28:38;13.80;99.90
55648;DHT22;45266;48.756;9.246;2022-10-16T03:29:40;13.80;99.90
55648;DHT22;45266;48.756;9.246;2022-10-16T03:30:43;13.80;99.90
55648;DHT22;45266;48.756;9.246;2022-10-16T03:31:45;13.80;99.90
55648;DHT22;45266;48.756;9.246;2022-10-16T03:32:47;13.80;99.90
55648;DHT22;45266;48.756;9.246;2022-10-16T03:33:48;13.80;99.90
55648;DHT22;45266;48.756;9.246;2022-10-16T03:34:50;13.80;99.90
55648;DHT22;45266;48.756;9.246;2022-10-16T03:35:53;13.80;99.90
55648;DHT22;45266;48.756;9.246;2022-10-16T03:36:55;13.80;99.90
55648;DHT22;45266;48.756;9.246;2022-10-16T03:37:57;13.80;99.90
55648;DHT22;45266;48.756;9.246;2022-10-16T03:38:59;13.80;99.90
55648;DHT22;45266;48.756;9.246;2022-10-16T03:40:01;13.80;99.90
55648;DHT22;45266;48.756;9.246;2022-10-16T03:41:02;13.80;99.90
55648;DHT22;45266;48.756;9.246;2022-10-16T03:42:05;13.80;99.90
55648;DHT22;45266;48.756;9.246;2022-10-16T03:43:07;13.80;99.90
55648;DHT22;45266;48.756;9.246;2022-10-16T03:44:08;13.80;99.90
55648;DHT22;45266;48.756;9.246;2022-10-16T03:45:11;13.70;99.90
55648;DHT22;45266;48.756;9.246;2022-10-16T03:46:13;13.80;99.90
55648;DHT22;45266;48.756;9.246;2022-10-16T03:47:14;13.70;99.90
55648;DHT22;45266;48.756;9.246;2022-10-16T03:48:16;13.70;99.90
55648;DHT22;45266;48.756;9.246;2022-10-16T03:49:18;13.70;99.90
55648;DHT22;45266;48.756;9.246;2022-10-16T03:50:20;13.70;99.90
55648;DHT22;45266;48.756;9.246;2022-10-16T03:51:22;13.70;99.90
55648;DHT22;45266;48.756;9.246;2022-10-16T03:52:23;13.70;99.90
55648;DHT22;45266;48.756;9.246;2022-10-16T03:53:25;13.70;99.90
55648;DHT22;45266;48.756;9.246;2022-10-16T03:54:27;13.70;99.90
55648;DHT22;45266;48.756;9.246;2022-10-16T03:55:29;13.70;99.90
55648;DHT22;45266;48.756;9.246;2022-10-16T03:56:30;13.70;99.90
55648;DHT22;45266;48.756;9.246;2022-10-16T03:57:32;13.70;99.90
55648;DHT22;45266;48.756;9.246;2022-10-16T03:58:34;13.60;99.90
55648;DHT22;45266;48.756;9.246;2022-10-16T03:59:36;13.70;99.90
55648;DHT22;45266;48.756;9.246;2022-10-16T04:00:44;13.60;99.90
55648;DHT22;45266;48.756;9.246;2022-10-16T04:01:46;13.60;99.90
55648;DHT22;45266;48.756;9.246;2022-10-16T04:02:48;13.60;99.90
55648;DHT22;45266;48.756;9.246;2022-10-16T04:03:50;13.60;99.90
55648;DHT22;45266;48.756;9.246;2022-10-16T04:04:51;13.60;99.90
55648;DHT22;45266;48.756;9.246;2022-10-16T04:05:54;13.60;99.90
55648;DHT22;45266;48.756;9.246;2022-10-16T04:06:55;13.60;99.90
55648;DHT22;45266;48.756;9.246;2022-10-16T04:07:57;13.60;99.90
55648;DHT22;45266;48.756;9.246;2022-10-16T04:08:59;13.60;99.90
55648;DHT22;45266;48.756;9.246;2022-10-16T04:10:01;13.60;99.90
55648;DHT22;45266;48.756;9.246;2022-10-16T04:11:03;13.60;99.90
55648;DHT22;45266;48.756;9.246;2022-10-16T04:12:04;13.60;99.90
55648;DHT22;45266;48.756;9.246;2022-10-16T04:13:06;13.60;99.90
55648;DHT22;45266;48.756;9.246;2022-10-16T04:14:08;13.60;99.90
55648;DHT22;45266;48.756;9.246;2022-10-16T04:15:10;13.60;99.90
55648;DHT22;45266;48.756;9.246;2022-10-16T04:16:12;13.60;99.90
55648;DHT22;45266;48.756;9.246;2022-10-16T04:17:14;13.60;99.90
55648;DHT22;45266;48.756;9.246;2022-10-16T04:18:15;13.60;99.90
55648;DHT22;45266;48.756;9.246;2022-10-16T04:19:17;13.60;99.90
55648;DHT22;45266;48.756;9.246;2022-10-16T04:20:19;13.60;99.90
55648;DHT22;45266;48.756;9.246;2022-10-16T04:21:21;13.60;99.90
55648;DHT22;45266;48.756;9.246;2022-10-16T04:22:22;13.60;99.90
55648;DHT22;45266;48.756;9.246;2022-10-16T04:23:24;13.60;99.90
55648;DHT22;45266;48.756;9.246;2022-10-16T04:24:26;13.60;99.90
55648;DHT22;45266;48.756;9.246;2022-10-16T04:25:28;13.60;99.90
55648;DHT22;45266;48.756;9.246;2022-10-16T04:26:30;13.60;99.90
55648;DHT22;45266;48.756;9.246;2022-10-16T04:27:32;13.50;99.90
55648;DHT22;45266;48.756;9.246;2022-10-16T04:28:33;13.50;99.90
55648;DHT22;45266;48.756;9.246;2022-10-16T04:29:35;13.50;99.90
55648;DHT22;45266;48.756;9.246;2022-10-16T04:30:38;13.50;99.90
55648;DHT22;45266;48.756;9.246;2022-10-16T04:31:40;13.50;99.90
55648;DHT22;45266;48.756;9.246;2022-10-16T04:32:42;13.60;99.90
55648;DHT22;45266;48.756;9.246;2022-10-16T04:33:44;13.50;99.90
55648;DHT22;45266;48.756;9.246;2022-10-16T04:34:46;13.50;99.90
55648;DHT22;45266;48.756;9.246;2022-10-16T04:35:47;13.50;99.90
55648;DHT22;45266;48.756;9.246;2022-10-16T04:36:49;13.50;99.90
55648;DHT22;45266;48.756;9.246;2022-10-16T04:37:51;13.50;99.90
55648;DHT22;45266;48.756;9.246;2022-10-16T04:38:53;13.50;99.90
55648;DHT22;45266;48.756;9.246;2022-10-16T04:39:55;13.50;99.90
55648;DHT22;45266;48.756;9.246;2022-10-16T04:40:57;13.50;99.90
55648;DHT22;45266;48.756;9.246;2022-10-16T04:41:58;13.50;99.90
55648;DHT22;45266;48.756;9.246;2022-10-16T04:43:00;13.50;99.90
55648;DHT22;45266;48.756;9.246;2022-10-16T04:44:02;13.50;99.90
55648;DHT22;45266;48.756;9.246;2022-10-16T04:45:05;13.60;99.90
55648;DHT22;45266;48.756;9.246;2022-10-16T04:46:07;13.60;99.90
55648;DHT22;45266;48.756;9.246;2022-10-16T04:47:09;13.50;99.90
55648;DHT22;45266;48.756;9.246;2022-10-16T04:48:10;13.60;99.90
55648;DHT22;45266;48.756;9.246;2022-10-16T04:49:12;13.60;99.90
55648;DHT22;45266;48.756;9.246;2022-10-16T04:50:14;13.50;99.90
55648;DHT22;45266;48.756;9.246;2022-10-16T04:51:16;13.50;99.90
55648;DHT22;45266;48.756;9.246;2022-10-16T04:52:18;13.60;99.90
55648;DHT22;45266;48.756;9.246;2022-10-16T04:53:20;13.60;99.90
55648;DHT22;45266;48.756;9.246;2022-10-16T04:54:22;13.50;99.90
55648;DHT22;45266;48.756;9.246;2022-10-16T04:55:24;13.50;99.90
55648;DHT22;45266;48.756;9.246;2022-10-16T04:56:25;13.50;99.90
55648;DHT22;45266;48.756;9.246;2022-10-16T04:57:28;13.50;99.90
55648;DHT22;45266;48.756;9.246;2022-10-16T04:58:30;13.50;99.90
55648;DHT22;45266;48.756;9.246;2022-10-16T04:59:31;13.50;99.90
55648;DHT22;45266;48.756;9.246;2022-10-16T05:00:34;13.50;99.90
55648;DHT22;45266;48.756;9.246;2022-10-16T05:01:36;13.40;99.90
55648;DHT22;45266;48.756;9.246;2022-10-16T05:02:37;13.50;99.90
55648;DHT22;45266;48.756;9.246;2022-10-16T05:03:39;13.50;99.90
55648;DHT22;45266;48.756;9.246;2022-10-16T05:04:41;13.40;99.90
55648;DHT22;45266;48.756;9.246;2022-10-16T05:05:44;13.50;99.90
55648;DHT22;45266;48.756;9.246;2022-10-16T05:06:47;13.50;99.90
55648;DHT22;45266;48.756;9.246;2022-10-16T05:07:49;13.50;99.90
55648;DHT22;45266;48.756;9.246;2022-10-16T05:08:51;13.50;99.90
55648;DHT22;45266;48.756;9.246;2022-10-16T05:09:53;13.50;99.90
55648;DHT22;45266;48.756;9.246;2022-10-16T05:10:55;13.50;99.90
55648;DHT22;45266;48.756;9.246;2022-10-16T05:11:56;13.40;99.90
55648;DHT22;45266;48.756;9.246;2022-10-16T05:12:58;13.50;99.90
55648;DHT22;45266;48.756;9.246;2022-10-16T05:14:00;13.50;99.90
55648;DHT22;45266;48.756;9.246;2022-10-16T05:15:02;13.50;99.90
55648;DHT22;45266;48.756;9.246;2022-10-16T05:16:05;13.50;99.90
55648;DHT22;45266;48.756;9.246;2022-10-16T05:17:06;13.50;99.90
55648;DHT22;45266;48.756;9.246;2022-10-16T05:18:08;13.50;99.90
55648;DHT22;45266;48.756;9.246;2022-10-16T05:19:10;13.50;99.90
55648;DHT22;45266;48.756;9.246;2022-10-16T05:20:29;13.50;99.90
55648;DHT22;45266;48.756;9.246;2022-10-16T05:21:31;13.50;99.90
55648;DHT22;45266;48.756;9.246;2022-10-16T05:22:33;13.50;99.90
55648;DHT22;45266;48.756;9.246;2022-10-16T05:23:34;13.50;99.90
55648;DHT22;45266;48.756;9.246;2022-10-16T05:24:36;13.40;99.90
55648;DHT22;45266;48.756;9.246;2022-10-16T05:25:38;13.40;99.90
55648;DHT22;45266;48.756;9.246;2022-10-16T05:26:39;13.40;99.90
55648;DHT22;45266;48.756;9.246;2022-10-16T05:27:41;13.40;99.90
55648;DHT22;45266;48.756;9.246;2022-10-16T05:28:43;13.40;99.90
55648;DHT22;45266;48.756;9.246;2022-10-16T05:29:46;13.40;99.90
55648;DHT22;45266;48.756;9.246;2022-10-16T05:30:48;13.40;99.90
55648;DHT22;45266;48.756;9.246;2022-10-16T05:31:53;13.40;99.90
55648;DHT22;45266;48.756;9.246;2022-10-16T05:32:55;13.40;99.90
55648;DHT22;45266;48.756;9.246;2022-10-16T05:34:00;13.40;99.90
55648;DHT22;45266;48.756;9.246;2022-10-16T05:35:02;13.40;99.90
55648;DHT22;45266;48.756;9.246;2022-10-16T05:36:09;13.40;99.90
55648;DHT22;45266;48.756;9.246;2022-10-16T05:37:11;13.40;99.90
55648;DHT22;45266;48.756;9.246;2022-10-16T05:38:13;13.40;99.90
55648;DHT22;45266;48.756;9.246;2022-10-16T05:39:15;13.40;99.90
55648;DHT22;45266;48.756;9.246;2022-10-16T05:40:17;13.40;99.90
55648;DHT22;45266;48.756;9.246;2022-10-16T05:41:19;13.40;99.90
55648;DHT22;45266;48.756;9.246;2022-10-16T05:42:23;13.40;99.90
55648;DHT22;45266;48.756;9.246;2022-10-16T05:43:24;13.30;99.90
55648;DHT22;45266;48.756;9.246;2022-10-16T05:44:26;13.30;99.90
55648;DHT22;45266;48.756;9.246;2022-10-16T05:45:28;13.30;99.90
55648;DHT22;45266;48.756;9.246;2022-10-16T05:46:30;13.30;99.90
55648;DHT22;45266;48.756;9.246;2022-10-16T05:47:31;13.30;99.90
55648;DHT22;45266;48.756;9.246;2022-10-16T05:48:33;13.30;99.90
55648;DHT22;45266;48.756;9.246;2022-10-16T05:49:35;13.30;99.90
55648;DHT22;45266;48.756;9.246;2022-10-16T05:50:41;13.30;99.90
55648;DHT22;45266;48.756;9.246;2022-10-16T05:51:43;13.30;99.90
55648;DHT22;45266;48.756;9.246;2022-10-16T05:52:45;13.20;99.90
55648;DHT22;45266;48.756;9.246;2022-10-16T05:53:47;13.20;99.90
55648;DHT22;45266;48.756;9.246;2022-10-16T05:54:49;13.20;99.90
55648;DHT22;45266;48.756;9.246;2022-10-16T05:55:55;13.20;99.90
55648;DHT22;45266;48.756;9.246;2022-10-16T05:56:57;13.10;99.90
55648;DHT22;45266;48.756;9.246;2022-10-16T05:57:58;13.20;99.90
55648;DHT22;45266;48.756;9.246;2022-10-16T05:59:00;13.20;99.90
55648;DHT22;45266;48.756;9.246;2022-10-16T06:00:03;13.20;99.90
55648;DHT22;45266;48.756;9.246;2022-10-16T06:01:10;13.20;99.90
55648;DHT22;45266;48.756;9.246;2022-10-16T06:02:13;13.20;99.90
55648;DHT22;45266;48.756;9.246;2022-10-16T06:03:15;13.20;99.90
55648;DHT22;45266;48.756;9.246;2022-10-16T06:04:16;13.20;99.90
55648;DHT22;45266;48.756;9.246;2022-10-16T06:05:18;13.20;99.90
55648;DHT22;45266;48.756;9.246;2022-10-16T06:06:22;13.20;99.90
55648;DHT22;45266;48.756;9.246;2022-10-16T06:07:25;13.20;99.90
55648;DHT22;45266;48.756;9.246;2022-10-16T06:08:27;13.20;99.90
55648;DHT22;45266;48.756;9.246;2022-10-16T06:09:29;13.20;99.90
55648;DHT22;45266;48.756;9.246;2022-10-16T06:10:31;13.20;99.90
55648;DHT22;45266;48.756;9.246;2022-10-16T06:11:33;13.30;99.90
55648;DHT22;45266;48.756;9.246;2022-10-16T06:12:35;13.30;99.90
55648;DHT22;45266;48.756;9.246;2022-10-16T06:13:37;13.30;99.90
55648;DHT22;45266;48.756;9.246;2022-10-16T06:14:38;13.20;99.90
55648;DHT22;45266;48.756;9.246;2022-10-16T06:15:42;13.30;99.90
55648;DHT22;45266;48.756;9.246;2022-10-16T06:16:43;13.30;99.90
55648;DHT22;45266;48.756;9.246;2022-10-16T06:17:45;13.30;99.90
55648;DHT22;45266;48.756;9.246;2022-10-16T06:18:47;13.30;99.90
55648;DHT22;45266;48.756;9.246;2022-10-16T06:19:51;13.30;99.90
55648;DHT22;45266;48.756;9.246;2022-10-16T06:20:54;13.30;99.90
55648;DHT22;45266;48.756;9.246;2022-10-16T06:21:55;13.30;99.90
55648;DHT22;45266;48.756;9.246;2022-10-16T06:22:59;13.30;99.90
55648;DHT22;45266;48.756;9.246;2022-10-16T06:24:01;13.40;99.90
55648;DHT22;45266;48.756;9.246;2022-10-16T06:25:04;13.40;99.90
55648;DHT22;45266;48.756;9.246;2022-10-16T06:26:11;13.40;99.90
55648;DHT22;45266;48.756;9.246;2022-10-16T06:27:13;13.40;99.90
55648;DHT22;45266;48.756;9.246;2022-10-16T06:28:15;13.40;99.90
55648;DHT22;45266;48.756;9.246;2022-10-16T06:29:17;13.50;99.90
55648;DHT22;45266;48.756;9.246;2022-10-16T06:30:19;13.50;99.90
55648;DHT22;45266;48.756;9.246;2022-10-16T06:31:21;13.50;99.90
55648;DHT22;45266;48.756;9.246;2022-10-16T06:32:23;13.50;99.90
55648;DHT22;45266;48.756;9.246;2022-10-16T06:33:25;13.50;99.90
55648;DHT22;45266;48.756;9.246;2022-10-16T06:34:26;13.50;99.90
55648;DHT22;45266;48.756;9.246;2022-10-16T06:35:28;13.50;99.90
55648;DHT22;45266;48.756;9.246;2022-10-16T06:36:30;13.50;99.90
55648;DHT22;45266;48.756;9.246;2022-10-16T06:37:32;13.50;99.90
55648;DHT22;45266;48.756;9.246;2022-10-16T06:38:35;13.50;99.90
55648;DHT22;45266;48.756;9.246;2022-10-16T06:39:36;13.50;99.90
55648;DHT22;45266;48.756;9.246;2022-10-16T06:40:38;13.50;99.90
55648;DHT22;45266;48.756;9.246;2022-10-16T06:41:40;13.60;99.90
55648;DHT22;45266;48.756;9.246;2022-10-16T06:42:42;13.60;99.90
55648;DHT22;45266;48.756;9.246;2022-10-16T06:43:44;13.60;99.90
55648;DHT22;45266;48.756;9.246;2022-10-16T06:44:46;13.60;99.90
55648;DHT22;45266;48.756;9.246;2022-10-16T06:45:53;13.70;99.90
55648;DHT22;45266;48.756;9.246;2022-10-16T06:46:54;13.70;99.90
55648;DHT22;45266;48.756;9.246;2022-10-16T06:47:56;13.70;99.90
55648;DHT22;45266;48.756;9.246;2022-10-16T06:48:58;13.70;99.90
55648;DHT22;45266;48.756;9.246;2022-10-16T06:50:00;13.70;99.90
55648;DHT22;45266;48.756;9.246;2022-10-16T06:52:03;13.80;99.90
55648;DHT22;45266;48.756;9.246;2022-10-16T06:53:06;13.80;99.90
55648;DHT22;45266;48.756;9.246;2022-10-16T06:54:07;13.80;99.90
55648;DHT22;45266;48.756;9.246;2022-10-16T06:55:09;13.90;99.90
55648;DHT22;45266;48.756;9.246;2022-10-16T06:56:13;13.90;99.90
55648;DHT22;45266;48.756;9.246;2022-10-16T06:57:16;13.90;99.90
55648;DHT22;45266;48.756;9.246;2022-10-16T06:58:18;13.90;99.90